sensor_id;sensor_type;location;lat;lon;timestamp;P1;durP1;ratioP1;P2;durP2;ratioP2
16689;SDS011;8458;52.220;9.884;2023-12-22T00:02:12;13.23;;;3.20;;
16689;SDS011;8458;52.220;9.884;2023-12-22T00:04:39;11.43;;;2.77;;
16689;SDS011;8458;52.220;9.884;2023-12-22T00:07:06;9.40;;;3.13;;
16689;SDS011;8458;52.220;9.884;2023-12-22T00:09:32;12.47;;;3.23;;
16689;SDS011;8458;52.220;9.884;2023-12-22T00:11:59;11.23;;;3.40;;
16689;SDS011;8458;52.220;9.884;2023-12-22T00:14:25;15.83;;;4.27;;
16689;SDS011;8458;52.220;9.884;2023-12-22T00:16:52;11.03;;;3.13;;
16689;SDS011;8458;52.220;9.884;2023-12-22T00:19:18;7.83;;;2.60;;
16689;SDS011;8458;52.220;9.884;2023-12-22T00:21:46;9.00;;;1.97;;
16689;SDS011;8458;52.220;9.884;2023-12-22T00:24:12;7.73;;;1.80;;
16689;SDS011;8458;52.220;9.884;2023-12-22T00:26:39;5.40;;;1.87;;
16689;SDS011;8458;52.220;9.884;2023-12-22T00:29:05;5.10;;;1.87;;
16689;SDS011;8458;52.220;9.884;2023-12-22T00:31:32;4.80;;;1.80;;
16689;SDS011;8458;52.220;9.884;2023-12-22T00:33:58;9.07;;;2.20;;
16689;SDS011;8458;52.220;9.884;2023-12-22T00:36:26;7.13;;;1.97;;
16689;SDS011;8458;52.220;9.884;2023-12-22T00:38:54;8.70;;;2.57;;
16689;SDS011;8458;52.220;9.884;2023-12-22T00:41:20;11.80;;;2.57;;
16689;SDS011;8458;52.220;9.884;2023-12-22T00:43:46;8.53;;;2.73;;
16689;SDS011;8458;52.220;9.884;2023-12-22T00:46:13;11.40;;;2.47;;
16689;SDS011;8458;52.220;9.884;2023-12-22T00:48:39;8.80;;;2.70;;
16689;SDS011;8458;52.220;9.884;2023-12-22T00:51:06;10.70;;;2.57;;
16689;SDS011;8458;52.220;9.884;2023-12-22T00:53:33;7.33;;;2.30;;
16689;SDS011;8458;52.220;9.884;2023-12-22T00:56:01;8.77;;;2.67;;
16689;SDS011;8458;52.220;9.884;2023-12-22T00:58:27;6.90;;;2.57;;
16689;SDS011;8458;52.220;9.884;2023-12-22T01:00:54;12.00;;;3.37;;
16689;SDS011;8458;52.220;9.884;2023-12-22T01:03:20;10.40;;;2.90;;
16689;SDS011;8458;52.220;9.884;2023-12-22T01:05:47;11.23;;;3.23;;
16689;SDS011;8458;52.220;9.884;2023-12-22T01:08:13;10.67;;;2.60;;
16689;SDS011;8458;52.220;9.884;2023-12-22T01:10:40;9.37;;;3.07;;
16689;SDS011;8458;52.220;9.884;2023-12-22T01:13:08;9.27;;;2.97;;
16689;SDS011;8458;52.220;9.884;2023-12-22T01:15:34;10.07;;;2.90;;
16689;SDS011;8458;52.220;9.884;2023-12-22T01:18:01;7.57;;;2.23;;
16689;SDS011;8458;52.220;9.884;2023-12-22T01:20:27;9.80;;;2.47;;
16689;SDS011;8458;52.220;9.884;2023-12-22T01:22:53;5.90;;;2.17;;
16689;SDS011;8458;52.220;9.884;2023-12-22T01:25:20;12.67;;;2.60;;
16689;SDS011;8458;52.220;9.884;2023-12-22T01:27:46;7.33;;;2.33;;
16689;SDS011;8458;52.220;9.884;2023-12-22T01:30:15;9.07;;;2.70;;
16689;SDS011;8458;52.220;9.884;2023-12-22T01:32:42;9.47;;;2.67;;
16689;SDS011;8458;52.220;9.884;2023-12-22T01:35:08;9.70;;;2.60;;
16689;SDS011;8458;52.220;9.884;2023-12-22T01:37:35;6.80;;;2.77;;
16689;SDS011;8458;52.220;9.884;2023-12-22T01:40:02;7.47;;;2.30;;
16689;SDS011;8458;52.220;9.884;2023-12-22T01:42:28;6.50;;;2.70;;
16689;SDS011;8458;52.220;9.884;2023-12-22T01:44:55;6.90;;;2.00;;
16689;SDS011;8458;52.220;9.884;2023-12-22T01:47:23;5.80;;;2.10;;
16689;SDS011;8458;52.220;9.884;2023-12-22T01:49:49;7.13;;;2.00;;
16689;SDS011;8458;52.220;9.884;2023-12-22T01:52:16;7.57;;;2.50;;
16689;SDS011;8458;52.220;9.884;2023-12-22T01:54:44;6.20;;;1.70;;
16689;SDS011;8458;52.220;9.884;2023-12-22T01:57:11;7.40;;;1.73;;
16689;SDS011;8458;52.220;9.884;2023-12-22T01:59:42;7.13;;;2.00;;
16689;SDS011;8458;52.220;9.884;2023-12-22T02:02:09;8.67;;;1.70;;
16689;SDS011;8458;52.220;9.884;2023-12-22T02:04:37;5.20;;;1.47;;
16689;SDS011;8458;52.220;9.884;2023-12-22T02:07:05;9.40;;;1.67;;
16689;SDS011;8458;52.220;9.884;2023-12-22T02:09:33;5.03;;;1.53;;
16689;SDS011;8458;52.220;9.884;2023-12-22T02:12:00;7.03;;;1.80;;
16689;SDS011;8458;52.220;9.884;2023-12-22T02:14:28;6.90;;;1.57;;
16689;SDS011;8458;52.220;9.884;2023-12-22T02:16:55;6.47;;;1.90;;
16689;SDS011;8458;52.220;9.884;2023-12-22T02:19:35;8.20;;;1.90;;
16689;SDS011;8458;52.220;9.884;2023-12-22T02:22:09;7.50;;;1.90;;
16689;SDS011;8458;52.220;9.884;2023-12-22T02:24:37;10.53;;;2.50;;
16689;SDS011;8458;52.220;9.884;2023-12-22T02:27:05;8.93;;;2.17;;
16689;SDS011;8458;52.220;9.884;2023-12-22T02:29:36;6.80;;;1.97;;
16689;SDS011;8458;52.220;9.884;2023-12-22T02:32:07;6.17;;;1.30;;
16689;SDS011;8458;52.220;9.884;2023-12-22T02:34:38;5.07;;;1.50;;
16689;SDS011;8458;52.220;9.884;2023-12-22T02:37:09;4.47;;;1.50;;
16689;SDS011;8458;52.220;9.884;2023-12-22T02:39:38;5.27;;;1.50;;
16689;SDS011;8458;52.220;9.884;2023-12-22T02:42:07;4.60;;;1.30;;
16689;SDS011;8458;52.220;9.884;2023-12-22T02:44:34;3.63;;;1.10;;
16689;SDS011;8458;52.220;9.884;2023-12-22T02:47:01;5.33;;;1.50;;
16689;SDS011;8458;52.220;9.884;2023-12-22T02:49:27;5.13;;;1.47;;
16689;SDS011;8458;52.220;9.884;2023-12-22T02:51:54;5.03;;;1.50;;
16689;SDS011;8458;52.220;9.884;2023-12-22T02:54:20;5.57;;;1.20;;
16689;SDS011;8458;52.220;9.884;2023-12-22T02:56:48;3.17;;;1.10;;
16689;SDS011;8458;52.220;9.884;2023-12-22T02:59:14;6.57;;;1.50;;
16689;SDS011;8458;52.220;9.884;2023-12-22T03:01:41;7.30;;;1.30;;
16689;SDS011;8458;52.220;9.884;2023-12-22T03:04:07;5.03;;;1.80;;
16689;SDS011;8458;52.220;9.884;2023-12-22T03:06:34;2.83;;;1.13;;
16689;SDS011;8458;52.220;9.884;2023-12-22T03:09:00;4.50;;;1.30;;
16689;SDS011;8458;52.220;9.884;2023-12-22T03:11:27;5.27;;;1.47;;
16689;SDS011;8458;52.220;9.884;2023-12-22T03:13:55;3.97;;;1.30;;
16689;SDS011;8458;52.220;9.884;2023-12-22T03:16:21;4.77;;;1.43;;
16689;SDS011;8458;52.220;9.884;2023-12-22T03:18:48;5.40;;;1.43;;
16689;SDS011;8458;52.220;9.884;2023-12-22T03:21:16;5.27;;;1.40;;
16689;SDS011;8458;52.220;9.884;2023-12-22T03:23:43;5.13;;;1.60;;
16689;SDS011;8458;52.220;9.884;2023-12-22T03:26:10;3.83;;;1.43;;
16689;SDS011;8458;52.220;9.884;2023-12-22T03:28:36;5.03;;;1.30;;
16689;SDS011;8458;52.220;9.884;2023-12-22T03:31:04;6.73;;;1.70;;
16689;SDS011;8458;52.220;9.884;2023-12-22T03:33:31;9.83;;;2.43;;
16689;SDS011;8458;52.220;9.884;2023-12-22T03:35:58;4.67;;;1.80;;
16689;SDS011;8458;52.220;9.884;2023-12-22T03:38:24;5.17;;;1.67;;
16689;SDS011;8458;52.220;9.884;2023-12-22T03:40:51;5.97;;;1.80;;
16689;SDS011;8458;52.220;9.884;2023-12-22T03:43:17;8.30;;;2.00;;
16689;SDS011;8458;52.220;9.884;2023-12-22T03:45:44;6.97;;;2.27;;
16689;SDS011;8458;52.220;9.884;2023-12-22T03:48:11;6.80;;;1.80;;
16689;SDS011;8458;52.220;9.884;2023-12-22T03:50:38;7.47;;;1.97;;
16689;SDS011;8458;52.220;9.884;2023-12-22T03:53:04;6.23;;;2.37;;
16689;SDS011;8458;52.220;9.884;2023-12-22T03:55:31;6.33;;;2.27;;
16689;SDS011;8458;52.220;9.884;2023-12-22T03:57:57;6.13;;;1.90;;
16689;SDS011;8458;52.220;9.884;2023-12-22T04:00:23;4.07;;;1.73;;
16689;SDS011;8458;52.220;9.884;2023-12-22T04:02:50;9.17;;;1.97;;
16689;SDS011;8458;52.220;9.884;2023-12-22T04:05:18;7.50;;;2.47;;
16689;SDS011;8458;52.220;9.884;2023-12-22T04:07:44;13.77;;;2.50;;
16689;SDS011;8458;52.220;9.884;2023-12-22T04:10:11;7.13;;;2.20;;
16689;SDS011;8458;52.220;9.884;2023-12-22T04:12:37;7.33;;;2.40;;
16689;SDS011;8458;52.220;9.884;2023-12-22T04:15:04;7.00;;;2.13;;
16689;SDS011;8458;52.220;9.884;2023-12-22T04:17:32;9.53;;;2.30;;
16689;SDS011;8458;52.220;9.884;2023-12-22T04:19:58;9.77;;;2.40;;
16689;SDS011;8458;52.220;9.884;2023-12-22T04:22:26;8.57;;;2.60;;
16689;SDS011;8458;52.220;9.884;2023-12-22T04:24:52;7.27;;;2.10;;
16689;SDS011;8458;52.220;9.884;2023-12-22T04:27:19;7.37;;;2.63;;
16689;SDS011;8458;52.220;9.884;2023-12-22T04:29:45;6.10;;;2.10;;
16689;SDS011;8458;52.220;9.884;2023-12-22T04:32:12;8.43;;;2.20;;
16689;SDS011;8458;52.220;9.884;2023-12-22T04:34:38;10.60;;;2.73;;
16689;SDS011;8458;52.220;9.884;2023-12-22T04:37:05;6.30;;;1.70;;
16689;SDS011;8458;52.220;9.884;2023-12-22T04:39:33;6.73;;;2.07;;
16689;SDS011;8458;52.220;9.884;2023-12-22T04:41:59;8.77;;;1.70;;
16689;SDS011;8458;52.220;9.884;2023-12-22T04:44:25;8.87;;;2.33;;
16689;SDS011;8458;52.220;9.884;2023-12-22T04:46:52;8.23;;;1.80;;
16689;SDS011;8458;52.220;9.884;2023-12-22T04:49:18;6.57;;;1.70;;
16689;SDS011;8458;52.220;9.884;2023-12-22T04:51:45;10.63;;;2.33;;
16689;SDS011;8458;52.220;9.884;2023-12-22T04:54:11;9.03;;;1.90;;
16689;SDS011;8458;52.220;9.884;2023-12-22T04:56:39;8.20;;;1.97;;
16689;SDS011;8458;52.220;9.884;2023-12-22T04:59:05;5.87;;;1.77;;
16689;SDS011;8458;52.220;9.884;2023-12-22T05:01:33;8.00;;;2.00;;
16689;SDS011;8458;52.220;9.884;2023-12-22T05:03:59;7.70;;;1.80;;
16689;SDS011;8458;52.220;9.884;2023-12-22T05:06:27;8.27;;;1.90;;
16689;SDS011;8458;52.220;9.884;2023-12-22T05:08:54;7.33;;;1.90;;
16689;SDS011;8458;52.220;9.884;2023-12-22T05:11:21;7.40;;;1.77;;
16689;SDS011;8458;52.220;9.884;2023-12-22T05:13:49;8.37;;;2.30;;
16689;SDS011;8458;52.220;9.884;2023-12-22T05:16:15;6.27;;;1.90;;
16689;SDS011;8458;52.220;9.884;2023-12-22T05:18:42;6.67;;;1.70;;
16689;SDS011;8458;52.220;9.884;2023-12-22T05:21:11;7.20;;;1.57;;
16689;SDS011;8458;52.220;9.884;2023-12-22T05:23:38;5.27;;;1.60;;
16689;SDS011;8458;52.220;9.884;2023-12-22T05:26:04;5.03;;;1.43;;
16689;SDS011;8458;52.220;9.884;2023-12-22T05:28:31;3.93;;;1.70;;
16689;SDS011;8458;52.220;9.884;2023-12-22T05:30:59;4.37;;;1.33;;
16689;SDS011;8458;52.220;9.884;2023-12-22T05:33:26;6.17;;;1.33;;
16689;SDS011;8458;52.220;9.884;2023-12-22T05:35:52;4.03;;;1.47;;
16689;SDS011;8458;52.220;9.884;2023-12-22T05:38:19;5.10;;;1.70;;
16689;SDS011;8458;52.220;9.884;2023-12-22T05:40:45;4.40;;;1.77;;
16689;SDS011;8458;52.220;9.884;2023-12-22T05:43:13;5.27;;;1.63;;
16689;SDS011;8458;52.220;9.884;2023-12-22T05:45:39;5.80;;;1.50;;
16689;SDS011;8458;52.220;9.884;2023-12-22T05:48:07;7.97;;;1.80;;
16689;SDS011;8458;52.220;9.884;2023-12-22T05:50:34;7.37;;;1.57;;
16689;SDS011;8458;52.220;9.884;2023-12-22T05:53:00;6.43;;;1.67;;
16689;SDS011;8458;52.220;9.884;2023-12-22T05:55:27;7.90;;;1.77;;
16689;SDS011;8458;52.220;9.884;2023-12-22T05:57:54;4.80;;;1.53;;
16689;SDS011;8458;52.220;9.884;2023-12-22T06:00:21;6.40;;;1.47;;
16689;SDS011;8458;52.220;9.884;2023-12-22T06:02:47;10.83;;;2.53;;
16689;SDS011;8458;52.220;9.884;2023-12-22T06:05:15;7.33;;;1.63;;
16689;SDS011;8458;52.220;9.884;2023-12-22T06:07:41;6.10;;;1.73;;
16689;SDS011;8458;52.220;9.884;2023-12-22T06:10:08;4.77;;;1.50;;
16689;SDS011;8458;52.220;9.884;2023-12-22T06:12:35;4.77;;;1.90;;
16689;SDS011;8458;52.220;9.884;2023-12-22T06:15:01;5.30;;;1.63;;
16689;SDS011;8458;52.220;9.884;2023-12-22T06:17:28;5.97;;;1.77;;
16689;SDS011;8458;52.220;9.884;2023-12-22T06:19:55;5.90;;;1.47;;
16689;SDS011;8458;52.220;9.884;2023-12-22T06:22:22;4.77;;;1.33;;
16689;SDS011;8458;52.220;9.884;2023-12-22T06:24:49;3.63;;;1.33;;
16689;SDS011;8458;52.220;9.884;2023-12-22T06:27:15;4.13;;;1.40;;
16689;SDS011;8458;52.220;9.884;2023-12-22T06:29:42;6.10;;;1.03;;
16689;SDS011;8458;52.220;9.884;2023-12-22T06:32:08;4.63;;;1.00;;
16689;SDS011;8458;52.220;9.884;2023-12-22T06:34:35;5.07;;;1.23;;
16689;SDS011;8458;52.220;9.884;2023-12-22T06:37:01;5.70;;;1.30;;
16689;SDS011;8458;52.220;9.884;2023-12-22T06:39:29;3.00;;;1.23;;
16689;SDS011;8458;52.220;9.884;2023-12-22T06:41:56;2.87;;;0.87;;
16689;SDS011;8458;52.220;9.884;2023-12-22T06:44:22;2.90;;;0.70;;
16689;SDS011;8458;52.220;9.884;2023-12-22T06:46:50;1.67;;;0.60;;
16689;SDS011;8458;52.220;9.884;2023-12-22T06:49:17;2.03;;;0.60;;
16689;SDS011;8458;52.220;9.884;2023-12-22T06:51:44;2.60;;;0.70;;
16689;SDS011;8458;52.220;9.884;2023-12-22T06:54:10;1.10;;;0.33;;
16689;SDS011;8458;52.220;9.884;2023-12-22T06:56:38;0.77;;;0.30;;
16689;SDS011;8458;52.220;9.884;2023-12-22T06:59:04;0.60;;;0.20;;
16689;SDS011;8458;52.220;9.884;2023-12-22T07:01:32;0.40;;;0.30;;
16689;SDS011;8458;52.220;9.884;2023-12-22T07:04:00;0.60;;;0.30;;
16689;SDS011;8458;52.220;9.884;2023-12-22T07:06:29;0.73;;;0.20;;
16689;SDS011;8458;52.220;9.884;2023-12-22T07:08:56;0.30;;;0.30;;
16689;SDS011;8458;52.220;9.884;2023-12-22T07:11:23;0.97;;;0.30;;
16689;SDS011;8458;52.220;9.884;2023-12-22T07:13:51;0.40;;;0.20;;
16689;SDS011;8458;52.220;9.884;2023-12-22T07:16:17;1.63;;;0.40;;
16689;SDS011;8458;52.220;9.884;2023-12-22T07:18:43;1.40;;;0.40;;
16689;SDS011;8458;52.220;9.884;2023-12-22T07:21:15;0.87;;;0.50;;
16689;SDS011;8458;52.220;9.884;2023-12-22T07:23:42;1.60;;;0.60;;
16689;SDS011;8458;52.220;9.884;2023-12-22T07:26:09;2.00;;;0.63;;
16689;SDS011;8458;52.220;9.884;2023-12-22T07:28:36;3.80;;;1.10;;
16689;SDS011;8458;52.220;9.884;2023-12-22T07:31:04;4.03;;;1.20;;
16689;SDS011;8458;52.220;9.884;2023-12-22T07:33:31;6.13;;;1.60;;
16689;SDS011;8458;52.220;9.884;2023-12-22T07:35:57;9.73;;;2.30;;
16689;SDS011;8458;52.220;9.884;2023-12-22T07:38:24;7.80;;;2.83;;
16689;SDS011;8458;52.220;9.884;2023-12-22T07:40:50;9.03;;;2.50;;
16689;SDS011;8458;52.220;9.884;2023-12-22T07:43:17;9.70;;;2.80;;
16689;SDS011;8458;52.220;9.884;2023-12-22T07:45:43;8.53;;;2.40;;
16689;SDS011;8458;52.220;9.884;2023-12-22T07:48:11;9.90;;;2.57;;
16689;SDS011;8458;52.220;9.884;2023-12-22T07:50:38;7.17;;;2.47;;
16689;SDS011;8458;52.220;9.884;2023-12-22T07:53:07;8.77;;;2.57;;
16689;SDS011;8458;52.220;9.884;2023-12-22T07:55:34;8.67;;;2.23;;
16689;SDS011;8458;52.220;9.884;2023-12-22T07:58:00;13.33;;;2.80;;
16689;SDS011;8458;52.220;9.884;2023-12-22T08:00:27;9.70;;;2.90;;
16689;SDS011;8458;52.220;9.884;2023-12-22T08:02:53;14.50;;;2.73;;
16689;SDS011;8458;52.220;9.884;2023-12-22T08:05:21;8.10;;;2.57;;
16689;SDS011;8458;52.220;9.884;2023-12-22T08:07:48;11.10;;;2.23;;
16689;SDS011;8458;52.220;9.884;2023-12-22T08:10:14;9.40;;;2.50;;
16689;SDS011;8458;52.220;9.884;2023-12-22T08:12:41;9.50;;;2.43;;
16689;SDS011;8458;52.220;9.884;2023-12-22T08:15:08;7.97;;;2.00;;
16689;SDS011;8458;52.220;9.884;2023-12-22T08:17:36;9.60;;;3.13;;
16689;SDS011;8458;52.220;9.884;2023-12-22T08:20:03;9.37;;;2.90;;
16689;SDS011;8458;52.220;9.884;2023-12-22T08:22:34;8.10;;;3.23;;
16689;SDS011;8458;52.220;9.884;2023-12-22T08:25:01;8.73;;;2.47;;
16689;SDS011;8458;52.220;9.884;2023-12-22T08:27:27;10.80;;;3.30;;
16689;SDS011;8458;52.220;9.884;2023-12-22T08:29:53;9.77;;;2.37;;
16689;SDS011;8458;52.220;9.884;2023-12-22T08:32:20;11.00;;;2.97;;
16689;SDS011;8458;52.220;9.884;2023-12-22T08:34:46;9.07;;;2.97;;
16689;SDS011;8458;52.220;9.884;2023-12-22T08:37:13;11.63;;;2.63;;
16689;SDS011;8458;52.220;9.884;2023-12-22T08:39:41;8.40;;;2.70;;
16689;SDS011;8458;52.220;9.884;2023-12-22T08:42:07;8.80;;;2.17;;
16689;SDS011;8458;52.220;9.884;2023-12-22T08:44:34;9.37;;;2.97;;
16689;SDS011;8458;52.220;9.884;2023-12-22T08:47:02;7.67;;;2.57;;
16689;SDS011;8458;52.220;9.884;2023-12-22T08:49:28;9.93;;;2.70;;
16689;SDS011;8458;52.220;9.884;2023-12-22T08:51:55;7.53;;;2.57;;
16689;SDS011;8458;52.220;9.884;2023-12-22T08:54:21;11.67;;;2.33;;
16689;SDS011;8458;52.220;9.884;2023-12-22T08:56:49;7.00;;;2.07;;
16689;SDS011;8458;52.220;9.884;2023-12-22T08:59:16;9.17;;;2.80;;
16689;SDS011;8458;52.220;9.884;2023-12-22T09:01:42;7.37;;;2.53;;
16689;SDS011;8458;52.220;9.884;2023-12-22T09:04:09;10.13;;;2.47;;
16689;SDS011;8458;52.220;9.884;2023-12-22T09:06:36;10.70;;;2.23;;
16689;SDS011;8458;52.220;9.884;2023-12-22T09:09:02;10.43;;;2.70;;
16689;SDS011;8458;52.220;9.884;2023-12-22T09:11:29;9.47;;;2.13;;
16689;SDS011;8458;52.220;9.884;2023-12-22T09:13:57;8.57;;;2.30;;
16689;SDS011;8458;52.220;9.884;2023-12-22T09:16:24;8.63;;;2.73;;
16689;SDS011;8458;52.220;9.884;2023-12-22T09:18:51;5.27;;;2.07;;
16689;SDS011;8458;52.220;9.884;2023-12-22T09:21:18;8.27;;;2.30;;
16689;SDS011;8458;52.220;9.884;2023-12-22T09:23:44;7.23;;;2.30;;
16689;SDS011;8458;52.220;9.884;2023-12-22T09:26:11;6.33;;;2.20;;
16689;SDS011;8458;52.220;9.884;2023-12-22T09:28:38;5.83;;;2.10;;
16689;SDS011;8458;52.220;9.884;2023-12-22T09:31:06;7.43;;;1.97;;
16689;SDS011;8458;52.220;9.884;2023-12-22T09:33:32;6.90;;;1.93;;
16689;SDS011;8458;52.220;9.884;2023-12-22T09:35:59;5.57;;;1.63;;
16689;SDS011;8458;52.220;9.884;2023-12-22T09:38:25;5.47;;;1.70;;
16689;SDS011;8458;52.220;9.884;2023-12-22T09:40:52;7.73;;;1.70;;
16689;SDS011;8458;52.220;9.884;2023-12-22T09:43:21;5.23;;;1.87;;
16689;SDS011;8458;52.220;9.884;2023-12-22T09:45:48;5.77;;;1.70;;
16689;SDS011;8458;52.220;9.884;2023-12-22T09:48:17;4.70;;;1.80;;
16689;SDS011;8458;52.220;9.884;2023-12-22T09:50:46;8.53;;;1.83;;
16689;SDS011;8458;52.220;9.884;2023-12-22T09:53:13;5.83;;;1.50;;
16689;SDS011;8458;52.220;9.884;2023-12-22T09:55:42;4.00;;;1.40;;
16689;SDS011;8458;52.220;9.884;2023-12-22T09:58:11;7.83;;;1.90;;
16689;SDS011;8458;52.220;9.884;2023-12-22T10:00:40;8.27;;;1.63;;
16689;SDS011;8458;52.220;9.884;2023-12-22T10:03:07;4.10;;;1.20;;
16689;SDS011;8458;52.220;9.884;2023-12-22T10:05:35;3.97;;;1.30;;
16689;SDS011;8458;52.220;9.884;2023-12-22T10:08:02;4.67;;;1.40;;
16689;SDS011;8458;52.220;9.884;2023-12-22T10:10:30;4.47;;;1.30;;
16689;SDS011;8458;52.220;9.884;2023-12-22T10:12:58;5.30;;;1.23;;
16689;SDS011;8458;52.220;9.884;2023-12-22T10:15:28;6.33;;;1.30;;
16689;SDS011;8458;52.220;9.884;2023-12-22T10:17:56;6.17;;;1.73;;
16689;SDS011;8458;52.220;9.884;2023-12-22T10:20:24;6.13;;;1.87;;
16689;SDS011;8458;52.220;9.884;2023-12-22T10:22:51;5.77;;;1.40;;
16689;SDS011;8458;52.220;9.884;2023-12-22T10:25:19;4.77;;;1.50;;
16689;SDS011;8458;52.220;9.884;2023-12-22T10:27:46;6.40;;;1.57;;
16689;SDS011;8458;52.220;9.884;2023-12-22T10:30:13;7.53;;;1.33;;
16689;SDS011;8458;52.220;9.884;2023-12-22T10:32:40;8.03;;;1.70;;
16689;SDS011;8458;52.220;9.884;2023-12-22T10:35:07;4.73;;;1.60;;
16689;SDS011;8458;52.220;9.884;2023-12-22T10:37:34;6.33;;;1.67;;
16689;SDS011;8458;52.220;9.884;2023-12-22T10:40:04;4.77;;;1.77;;
16689;SDS011;8458;52.220;9.884;2023-12-22T10:42:32;5.87;;;1.60;;
16689;SDS011;8458;52.220;9.884;2023-12-22T10:44:58;6.13;;;1.70;;
16689;SDS011;8458;52.220;9.884;2023-12-22T10:47:25;5.37;;;1.97;;
16689;SDS011;8458;52.220;9.884;2023-12-22T10:49:51;11.00;;;2.77;;
16689;SDS011;8458;52.220;9.884;2023-12-22T10:52:18;7.27;;;2.47;;
16689;SDS011;8458;52.220;9.884;2023-12-22T10:54:45;4.37;;;2.30;;
16689;SDS011;8458;52.220;9.884;2023-12-22T10:57:16;4.77;;;2.17;;
16689;SDS011;8458;52.220;9.884;2023-12-22T10:59:44;6.60;;;1.77;;
16689;SDS011;8458;52.220;9.884;2023-12-22T11:02:14;7.50;;;2.33;;
16689;SDS011;8458;52.220;9.884;2023-12-22T11:04:42;6.23;;;1.50;;
16689;SDS011;8458;52.220;9.884;2023-12-22T11:07:16;7.70;;;2.20;;
16689;SDS011;8458;52.220;9.884;2023-12-22T11:09:45;9.47;;;1.80;;
16689;SDS011;8458;52.220;9.884;2023-12-22T11:12:17;7.40;;;2.67;;
16689;SDS011;8458;52.220;9.884;2023-12-22T11:14:45;7.97;;;2.13;;
16689;SDS011;8458;52.220;9.884;2023-12-22T11:17:15;5.27;;;1.60;;
16689;SDS011;8458;52.220;9.884;2023-12-22T11:19:44;6.43;;;2.00;;
16689;SDS011;8458;52.220;9.884;2023-12-22T11:22:13;5.57;;;1.77;;
16689;SDS011;8458;52.220;9.884;2023-12-22T11:24:42;5.80;;;1.40;;
16689;SDS011;8458;52.220;9.884;2023-12-22T11:27:12;5.60;;;1.60;;
16689;SDS011;8458;52.220;9.884;2023-12-22T11:29:40;4.27;;;1.33;;
16689;SDS011;8458;52.220;9.884;2023-12-22T11:32:07;7.63;;;2.03;;
16689;SDS011;8458;52.220;9.884;2023-12-22T11:34:36;5.10;;;1.50;;
16689;SDS011;8458;52.220;9.884;2023-12-22T11:37:04;5.83;;;1.60;;
16689;SDS011;8458;52.220;9.884;2023-12-22T11:39:32;4.57;;;1.70;;
16689;SDS011;8458;52.220;9.884;2023-12-22T11:41:59;7.23;;;1.63;;
16689;SDS011;8458;52.220;9.884;2023-12-22T11:44:26;4.17;;;1.67;;
16689;SDS011;8458;52.220;9.884;2023-12-22T11:47:04;5.90;;;1.30;;
16689;SDS011;8458;52.220;9.884;2023-12-22T11:49:31;5.00;;;1.80;;
16689;SDS011;8458;52.220;9.884;2023-12-22T11:51:59;3.97;;;1.50;;
16689;SDS011;8458;52.220;9.884;2023-12-22T11:54:45;5.03;;;1.27;;
16689;SDS011;8458;52.220;9.884;2023-12-22T11:57:31;4.07;;;1.30;;
16689;SDS011;8458;52.220;9.884;2023-12-22T12:00:00;4.57;;;1.20;;
16689;SDS011;8458;52.220;9.884;2023-12-22T12:02:32;5.80;;;1.80;;
16689;SDS011;8458;52.220;9.884;2023-12-22T12:05:00;4.77;;;1.17;;
16689;SDS011;8458;52.220;9.884;2023-12-22T12:07:37;7.47;;;1.73;;
16689;SDS011;8458;52.220;9.884;2023-12-22T12:10:05;3.20;;;1.10;;
16689;SDS011;8458;52.220;9.884;2023-12-22T12:12:33;6.20;;;1.33;;
16689;SDS011;8458;52.220;9.884;2023-12-22T12:15:02;5.63;;;1.20;;
16689;SDS011;8458;52.220;9.884;2023-12-22T12:17:34;4.27;;;1.30;;
16689;SDS011;8458;52.220;9.884;2023-12-22T12:20:04;3.93;;;1.40;;
16689;SDS011;8458;52.220;9.884;2023-12-22T12:22:32;5.30;;;1.40;;
16689;SDS011;8458;52.220;9.884;2023-12-22T12:24:59;4.53;;;1.53;;
16689;SDS011;8458;52.220;9.884;2023-12-22T12:27:26;4.50;;;1.00;;
16689;SDS011;8458;52.220;9.884;2023-12-22T12:29:53;5.30;;;1.27;;
16689;SDS011;8458;52.220;9.884;2023-12-22T12:32:22;6.67;;;1.50;;
16689;SDS011;8458;52.220;9.884;2023-12-22T12:34:50;3.53;;;0.90;;
16689;SDS011;8458;52.220;9.884;2023-12-22T12:37:18;3.97;;;1.10;;
16689;SDS011;8458;52.220;9.884;2023-12-22T12:39:45;3.07;;;0.93;;
16689;SDS011;8458;52.220;9.884;2023-12-22T12:42:15;3.57;;;1.03;;
16689;SDS011;8458;52.220;9.884;2023-12-22T12:44:42;2.87;;;0.83;;
16689;SDS011;8458;52.220;9.884;2023-12-22T12:47:13;2.60;;;1.20;;
16689;SDS011;8458;52.220;9.884;2023-12-22T12:49:40;3.40;;;0.93;;
16689;SDS011;8458;52.220;9.884;2023-12-22T12:52:13;3.90;;;0.93;;
16689;SDS011;8458;52.220;9.884;2023-12-22T12:54:39;3.90;;;1.07;;
16689;SDS011;8458;52.220;9.884;2023-12-22T12:57:06;4.47;;;1.20;;
16689;SDS011;8458;52.220;9.884;2023-12-22T12:59:32;2.93;;;1.10;;
16689;SDS011;8458;52.220;9.884;2023-12-22T13:01:59;3.80;;;1.10;;
16689;SDS011;8458;52.220;9.884;2023-12-22T13:04:35;3.03;;;0.90;;
16689;SDS011;8458;52.220;9.884;2023-12-22T13:07:03;4.53;;;1.10;;
16689;SDS011;8458;52.220;9.884;2023-12-22T13:09:32;4.03;;;0.90;;
16689;SDS011;8458;52.220;9.884;2023-12-22T13:11:59;3.70;;;1.00;;
16689;SDS011;8458;52.220;9.884;2023-12-22T13:14:26;3.30;;;0.80;;
16689;SDS011;8458;52.220;9.884;2023-12-22T13:16:53;3.30;;;0.83;;
16689;SDS011;8458;52.220;9.884;2023-12-22T13:19:21;3.23;;;1.00;;
16689;SDS011;8458;52.220;9.884;2023-12-22T13:21:49;4.03;;;1.00;;
16689;SDS011;8458;52.220;9.884;2023-12-22T13:24:16;5.23;;;1.03;;
16689;SDS011;8458;52.220;9.884;2023-12-22T13:26:45;4.93;;;1.10;;
16689;SDS011;8458;52.220;9.884;2023-12-22T13:29:12;2.93;;;0.90;;
16689;SDS011;8458;52.220;9.884;2023-12-22T13:31:39;3.10;;;1.10;;
16689;SDS011;8458;52.220;9.884;2023-12-22T13:34:08;2.90;;;0.93;;
16689;SDS011;8458;52.220;9.884;2023-12-22T13:36:35;3.70;;;1.10;;
16689;SDS011;8458;52.220;9.884;2023-12-22T13:39:02;5.90;;;1.00;;
16689;SDS011;8458;52.220;9.884;2023-12-22T13:41:31;2.90;;;1.00;;
16689;SDS011;8458;52.220;9.884;2023-12-22T13:43:59;3.53;;;0.90;;
16689;SDS011;8458;52.220;9.884;2023-12-22T13:46:29;4.13;;;1.23;;
16689;SDS011;8458;52.220;9.884;2023-12-22T13:48:55;3.70;;;1.10;;
16689;SDS011;8458;52.220;9.884;2023-12-22T13:51:22;4.97;;;1.17;;
16689;SDS011;8458;52.220;9.884;2023-12-22T13:53:49;3.20;;;1.10;;
16689;SDS011;8458;52.220;9.884;2023-12-22T13:56:16;4.80;;;1.30;;
16689;SDS011;8458;52.220;9.884;2023-12-22T13:58:45;4.30;;;1.10;;
16689;SDS011;8458;52.220;9.884;2023-12-22T14:01:14;3.20;;;1.00;;
16689;SDS011;8458;52.220;9.884;2023-12-22T14:03:41;5.33;;;1.20;;
16689;SDS011;8458;52.220;9.884;2023-12-22T14:06:09;5.97;;;1.10;;
16689;SDS011;8458;52.220;9.884;2023-12-22T14:08:37;3.60;;;0.90;;
16689;SDS011;8458;52.220;9.884;2023-12-22T14:11:04;3.70;;;1.10;;
16689;SDS011;8458;52.220;9.884;2023-12-22T14:13:31;6.20;;;1.30;;
16689;SDS011;8458;52.220;9.884;2023-12-22T14:15:58;3.37;;;0.93;;
16689;SDS011;8458;52.220;9.884;2023-12-22T14:18:27;4.27;;;1.20;;
16689;SDS011;8458;52.220;9.884;2023-12-22T14:20:53;4.17;;;1.40;;
16689;SDS011;8458;52.220;9.884;2023-12-22T14:23:20;3.47;;;1.10;;
16689;SDS011;8458;52.220;9.884;2023-12-22T14:25:46;4.03;;;1.17;;
16689;SDS011;8458;52.220;9.884;2023-12-22T14:28:13;3.93;;;1.10;;
16689;SDS011;8458;52.220;9.884;2023-12-22T14:30:39;3.30;;;1.00;;
16689;SDS011;8458;52.220;9.884;2023-12-22T14:33:06;4.10;;;1.10;;
16689;SDS011;8458;52.220;9.884;2023-12-22T14:35:33;2.10;;;0.97;;
16689;SDS011;8458;52.220;9.884;2023-12-22T14:38:00;3.43;;;1.10;;
16689;SDS011;8458;52.220;9.884;2023-12-22T14:40:26;3.17;;;0.93;;
16689;SDS011;8458;52.220;9.884;2023-12-22T14:42:53;4.30;;;0.70;;
16689;SDS011;8458;52.220;9.884;2023-12-22T14:45:19;3.10;;;0.90;;
16689;SDS011;8458;52.220;9.884;2023-12-22T14:47:46;3.20;;;1.13;;
16689;SDS011;8458;52.220;9.884;2023-12-22T14:50:12;3.13;;;0.90;;
16689;SDS011;8458;52.220;9.884;2023-12-22T14:52:40;4.03;;;1.03;;
16689;SDS011;8458;52.220;9.884;2023-12-22T14:55:07;3.57;;;1.10;;
16689;SDS011;8458;52.220;9.884;2023-12-22T14:57:33;3.10;;;0.90;;
16689;SDS011;8458;52.220;9.884;2023-12-22T15:00:00;3.87;;;1.00;;
16689;SDS011;8458;52.220;9.884;2023-12-22T15:02:26;4.30;;;1.00;;